Owen, Kentucky
Current Conditions -  °F | °C
As of 11:53 AM on Monday 22 Dec 2014 (Local Time) from KFFT Reporting Station
Overcast Overcast  
Wind Chill:   Ceiling: 3500
Heat Index:   Visibility: 10mi
Dew Point:   Wind: 7mph
Humidity: 66%   Direction: 170°S
Pressure: 29.94"   Gusts: NA
Location:  38.5364°N, 84.5918°W
Report Text: KFFT 221653Z AUTO 17006KT 10SM OVC035 09/03 A2994 RMK AO2 SLP141 T00940033
Loading
Personal Weather Stations






























Interactive Weather Map New forecast layout! Learn more

10-Day Weather Forecast

Advertisements
Track Severe Weather on mobile